sensor_id;sensor_type;location;lat;lon;timestamp;P1;durP1;ratioP1;P2;durP2;ratioP2
34828;SDS011;21042;47.620;12.188;2022-09-27T00:00:02;4.97;;;3.22;;
34828;SDS011;21042;47.620;12.188;2022-09-27T00:02:37;9.68;;;4.05;;
34828;SDS011;21042;47.620;12.188;2022-09-27T00:05:03;10.18;;;4.38;;
34828;SDS011;21042;47.620;12.188;2022-09-27T00:07:30;10.77;;;3.67;;
34828;SDS011;21042;47.620;12.188;2022-09-27T00:09:57;7.00;;;3.97;;
34828;SDS011;21042;47.620;12.188;2022-09-27T00:12:24;7.25;;;3.53;;
34828;SDS011;21042;47.620;12.188;2022-09-27T00:14:51;4.43;;;2.40;;
34828;SDS011;21042;47.620;12.188;2022-09-27T00:17:18;5.35;;;2.45;;
34828;SDS011;21042;47.620;12.188;2022-09-27T00:19:44;3.38;;;2.38;;
34828;SDS011;21042;47.620;12.188;2022-09-27T00:22:11;4.70;;;2.80;;
34828;SDS011;21042;47.620;12.188;2022-09-27T00:24:38;6.70;;;2.53;;
34828;SDS011;21042;47.620;12.188;2022-09-27T00:27:04;4.00;;;1.92;;
34828;SDS011;21042;47.620;12.188;2022-09-27T00:29:31;3.03;;;1.98;;
34828;SDS011;21042;47.620;12.188;2022-09-27T00:31:58;3.28;;;1.70;;
34828;SDS011;21042;47.620;12.188;2022-09-27T00:34:24;3.00;;;1.90;;
34828;SDS011;21042;47.620;12.188;2022-09-27T00:36:51;8.07;;;1.60;;
34828;SDS011;21042;47.620;12.188;2022-09-27T00:39:18;3.33;;;1.80;;
34828;SDS011;21042;47.620;12.188;2022-09-27T00:47:02;2.95;;;2.00;;
34828;SDS011;21042;47.620;12.188;2022-09-27T00:49:30;3.58;;;2.05;;
34828;SDS011;21042;47.620;12.188;2022-09-27T00:52:11;4.32;;;1.88;;
34828;SDS011;21042;47.620;12.188;2022-09-27T00:54:39;3.23;;;1.80;;
34828;SDS011;21042;47.620;12.188;2022-09-27T00:57:09;2.72;;;1.80;;
34828;SDS011;21042;47.620;12.188;2022-09-27T00:59:44;2.33;;;1.80;;
34828;SDS011;21042;47.620;12.188;2022-09-27T01:02:14;3.78;;;2.17;;
34828;SDS011;21042;47.620;12.188;2022-09-27T01:04:41;3.20;;;2.20;;
34828;SDS011;21042;47.620;12.188;2022-09-27T01:07:10;4.55;;;1.83;;
34828;SDS011;21042;47.620;12.188;2022-09-27T01:09:37;3.75;;;2.30;;
34828;SDS011;21042;47.620;12.188;2022-09-27T01:24:07;4.57;;;2.92;;
34828;SDS011;21042;47.620;12.188;2022-09-27T01:26:59;5.60;;;3.67;;
34828;SDS011;21042;47.620;12.188;2022-09-27T01:38:48;6.00;;;3.40;;
34828;SDS011;21042;47.620;12.188;2022-09-27T01:41:26;5.05;;;3.20;;
34828;SDS011;21042;47.620;12.188;2022-09-27T01:46:57;4.13;;;2.80;;
34828;SDS011;21042;47.620;12.188;2022-09-27T01:49:45;4.72;;;2.63;;
34828;SDS011;21042;47.620;12.188;2022-09-27T01:52:21;7.05;;;3.30;;
34828;SDS011;21042;47.620;12.188;2022-09-27T01:54:55;5.03;;;3.15;;
34828;SDS011;21042;47.620;12.188;2022-09-27T01:57:37;6.32;;;3.20;;
34828;SDS011;21042;47.620;12.188;2022-09-27T02:00:15;4.80;;;2.80;;
34828;SDS011;21042;47.620;12.188;2022-09-27T02:02:46;3.58;;;2.60;;
34828;SDS011;21042;47.620;12.188;2022-09-27T02:05:24;3.83;;;2.30;;
34828;SDS011;21042;47.620;12.188;2022-09-27T02:08:44;3.33;;;2.40;;
34828;SDS011;21042;47.620;12.188;2022-09-27T02:11:20;5.15;;;2.60;;
34828;SDS011;21042;47.620;12.188;2022-09-27T02:14:04;11.10;;;3.55;;
34828;SDS011;21042;47.620;12.188;2022-09-27T02:16:47;5.47;;;3.20;;
34828;SDS011;21042;47.620;12.188;2022-09-27T02:27:23;8.55;;;3.72;;
34828;SDS011;21042;47.620;12.188;2022-09-27T02:29:57;7.13;;;3.88;;
34828;SDS011;21042;47.620;12.188;2022-09-27T02:32:30;5.25;;;3.30;;
34828;SDS011;21042;47.620;12.188;2022-09-27T02:34:58;9.15;;;3.58;;
34828;SDS011;21042;47.620;12.188;2022-09-27T02:37:31;7.72;;;3.75;;
34828;SDS011;21042;47.620;12.188;2022-09-27T02:39:58;5.57;;;3.35;;
34828;SDS011;21042;47.620;12.188;2022-09-27T02:42:26;5.78;;;3.30;;
34828;SDS011;21042;47.620;12.188;2022-09-27T02:44:53;5.22;;;3.25;;
34828;SDS011;21042;47.620;12.188;2022-09-27T02:47:24;5.05;;;2.63;;
34828;SDS011;21042;47.620;12.188;2022-09-27T02:53:29;3.03;;;1.67;;
34828;SDS011;21042;47.620;12.188;2022-09-27T02:56:33;5.97;;;1.95;;
34828;SDS011;21042;47.620;12.188;2022-09-27T02:59:49;3.03;;;1.70;;
34828;SDS011;21042;47.620;12.188;2022-09-27T03:03:05;3.38;;;1.70;;
34828;SDS011;21042;47.620;12.188;2022-09-27T03:05:51;2.80;;;1.30;;
34828;SDS011;21042;47.620;12.188;2022-09-27T03:08:24;1.90;;;1.45;;
34828;SDS011;21042;47.620;12.188;2022-09-27T03:10:51;3.60;;;1.65;;
34828;SDS011;21042;47.620;12.188;2022-09-27T03:13:18;4.35;;;1.63;;
34828;SDS011;21042;47.620;12.188;2022-09-27T03:15:45;3.70;;;1.42;;
34828;SDS011;21042;47.620;12.188;2022-09-27T03:18:31;3.90;;;2.05;;
34828;SDS011;21042;47.620;12.188;2022-09-27T03:21:17;6.20;;;2.60;;
34828;SDS011;21042;47.620;12.188;2022-09-27T03:23:44;6.60;;;2.80;;
34828;SDS011;21042;47.620;12.188;2022-09-27T03:26:11;3.33;;;2.40;;
34828;SDS011;21042;47.620;12.188;2022-09-27T03:28:38;2.92;;;2.25;;
34828;SDS011;21042;47.620;12.188;2022-09-27T03:31:05;3.47;;;2.30;;
34828;SDS011;21042;47.620;12.188;2022-09-27T03:33:44;4.10;;;2.55;;
34828;SDS011;21042;47.620;12.188;2022-09-27T03:38:38;5.40;;;2.67;;
34828;SDS011;21042;47.620;12.188;2022-09-27T03:41:08;4.25;;;2.67;;
34828;SDS011;21042;47.620;12.188;2022-09-27T03:46:02;4.63;;;2.90;;
34828;SDS011;21042;47.620;12.188;2022-09-27T03:48:29;9.20;;;3.05;;
34828;SDS011;21042;47.620;12.188;2022-09-27T03:50:56;4.97;;;3.20;;
34828;SDS011;21042;47.620;12.188;2022-09-27T03:53:23;7.15;;;3.33;;
34828;SDS011;21042;47.620;12.188;2022-09-27T03:55:50;7.55;;;3.08;;
34828;SDS011;21042;47.620;12.188;2022-09-27T03:58:17;9.02;;;4.63;;
34828;SDS011;21042;47.620;12.188;2022-09-27T04:00:45;14.20;;;7.30;;
34828;SDS011;21042;47.620;12.188;2022-09-27T04:03:12;10.50;;;5.70;;
34828;SDS011;21042;47.620;12.188;2022-09-27T04:06:02;7.13;;;4.10;;
34828;SDS011;21042;47.620;12.188;2022-09-27T04:08:36;6.72;;;3.78;;
34828;SDS011;21042;47.620;12.188;2022-09-27T04:11:04;16.17;;;5.28;;
34828;SDS011;21042;47.620;12.188;2022-09-27T04:13:31;9.45;;;4.90;;
34828;SDS011;21042;47.620;12.188;2022-09-27T04:15:58;8.75;;;4.10;;
34828;SDS011;21042;47.620;12.188;2022-09-27T04:18:43;7.05;;;3.55;;
34828;SDS011;21042;47.620;12.188;2022-09-27T04:21:39;6.97;;;4.10;;
34828;SDS011;21042;47.620;12.188;2022-09-27T04:24:08;6.65;;;4.05;;
34828;SDS011;21042;47.620;12.188;2022-09-27T04:26:38;6.80;;;3.95;;
34828;SDS011;21042;47.620;12.188;2022-09-27T04:29:10;7.10;;;4.45;;
34828;SDS011;21042;47.620;12.188;2022-09-27T04:31:40;10.68;;;5.00;;
34828;SDS011;21042;47.620;12.188;2022-09-27T04:34:45;4.65;;;2.97;;
34828;SDS011;21042;47.620;12.188;2022-09-27T04:37:30;5.38;;;3.78;;
34828;SDS011;21042;47.620;12.188;2022-09-27T04:40:01;5.95;;;3.58;;
34828;SDS011;21042;47.620;12.188;2022-09-27T04:42:31;6.65;;;3.58;;
34828;SDS011;21042;47.620;12.188;2022-09-27T04:47:25;4.13;;;3.03;;
34828;SDS011;21042;47.620;12.188;2022-09-27T04:49:52;3.20;;;2.30;;
34828;SDS011;21042;47.620;12.188;2022-09-27T04:52:19;7.05;;;3.40;;
34828;SDS011;21042;47.620;12.188;2022-09-27T04:54:45;8.05;;;4.25;;
34828;SDS011;21042;47.620;12.188;2022-09-27T04:57:12;3.97;;;2.78;;
34828;SDS011;21042;47.620;12.188;2022-09-27T04:59:40;4.03;;;2.45;;
34828;SDS011;21042;47.620;12.188;2022-09-27T05:02:08;4.72;;;2.75;;
34828;SDS011;21042;47.620;12.188;2022-09-27T05:04:55;4.28;;;2.53;;
34828;SDS011;21042;47.620;12.188;2022-09-27T05:07:26;6.55;;;3.30;;
34828;SDS011;21042;47.620;12.188;2022-09-27T05:09:59;9.75;;;4.50;;
34828;SDS011;21042;47.620;12.188;2022-09-27T05:12:27;6.55;;;3.03;;
34828;SDS011;21042;47.620;12.188;2022-09-27T05:14:57;5.82;;;2.80;;
34828;SDS011;21042;47.620;12.188;2022-09-27T05:17:39;3.35;;;2.22;;
34828;SDS011;21042;47.620;12.188;2022-09-27T05:20:24;3.08;;;1.73;;
34828;SDS011;21042;47.620;12.188;2022-09-27T05:23:00;4.20;;;2.35;;
34828;SDS011;21042;47.620;12.188;2022-09-27T05:25:30;4.78;;;2.47;;
34828;SDS011;21042;47.620;12.188;2022-09-27T05:27:58;4.03;;;2.20;;
34828;SDS011;21042;47.620;12.188;2022-09-27T05:30:25;4.57;;;2.60;;
34828;SDS011;21042;47.620;12.188;2022-09-27T05:33:03;3.47;;;1.90;;
34828;SDS011;21042;47.620;12.188;2022-09-27T05:35:54;1.98;;;1.40;;
34828;SDS011;21042;47.620;12.188;2022-09-27T05:38:27;3.15;;;1.50;;
34828;SDS011;21042;47.620;12.188;2022-09-27T05:40:57;5.13;;;1.98;;
34828;SDS011;21042;47.620;12.188;2022-09-27T05:43:24;3.85;;;1.92;;
34828;SDS011;21042;47.620;12.188;2022-09-27T05:45:51;2.50;;;1.67;;
34828;SDS011;21042;47.620;12.188;2022-09-27T05:48:20;2.42;;;1.88;;
34828;SDS011;21042;47.620;12.188;2022-09-27T05:54:32;2.65;;;1.50;;
34828;SDS011;21042;47.620;12.188;2022-09-27T05:56:59;4.65;;;1.70;;
34828;SDS011;21042;47.620;12.188;2022-09-27T05:59:43;5.32;;;2.35;;
34828;SDS011;21042;47.620;12.188;2022-09-27T06:02:30;3.40;;;2.42;;
34828;SDS011;21042;47.620;12.188;2022-09-27T06:05:16;8.38;;;2.78;;
34828;SDS011;21042;47.620;12.188;2022-09-27T06:08:09;7.80;;;3.22;;
34828;SDS011;21042;47.620;12.188;2022-09-27T06:10:43;4.20;;;2.53;;
34828;SDS011;21042;47.620;12.188;2022-09-27T06:13:12;6.75;;;3.03;;
34828;SDS011;21042;47.620;12.188;2022-09-27T06:15:42;4.45;;;2.80;;
34828;SDS011;21042;47.620;12.188;2022-09-27T06:18:13;6.03;;;3.28;;
34828;SDS011;21042;47.620;12.188;2022-09-27T06:20:44;5.90;;;3.08;;
34828;SDS011;21042;47.620;12.188;2022-09-27T06:23:12;9.43;;;3.00;;
34828;SDS011;21042;47.620;12.188;2022-09-27T06:25:41;4.03;;;2.40;;
34828;SDS011;21042;47.620;12.188;2022-09-27T06:28:15;6.25;;;4.03;;
34828;SDS011;21042;47.620;12.188;2022-09-27T06:30:45;5.95;;;3.33;;
34828;SDS011;21042;47.620;12.188;2022-09-27T06:33:32;5.13;;;3.10;;
34828;SDS011;21042;47.620;12.188;2022-09-27T06:36:01;6.18;;;3.20;;
34828;SDS011;21042;47.620;12.188;2022-09-27T06:38:34;4.68;;;2.83;;
34828;SDS011;21042;47.620;12.188;2022-09-27T06:41:10;4.13;;;2.70;;
34828;SDS011;21042;47.620;12.188;2022-09-27T06:43:49;6.07;;;3.42;;
34828;SDS011;21042;47.620;12.188;2022-09-27T06:46:37;6.38;;;3.30;;
34828;SDS011;21042;47.620;12.188;2022-09-27T06:49:20;6.45;;;3.78;;
34828;SDS011;21042;47.620;12.188;2022-09-27T06:51:50;5.65;;;3.15;;
34828;SDS011;21042;47.620;12.188;2022-09-27T06:54:19;7.28;;;2.78;;
34828;SDS011;21042;47.620;12.188;2022-09-27T06:56:46;4.43;;;2.42;;
34828;SDS011;21042;47.620;12.188;2022-09-27T06:59:13;4.50;;;2.78;;
34828;SDS011;21042;47.620;12.188;2022-09-27T07:02:17;5.28;;;2.70;;
34828;SDS011;21042;47.620;12.188;2022-09-27T07:05:02;6.38;;;3.80;;
34828;SDS011;21042;47.620;12.188;2022-09-27T07:07:42;5.38;;;2.85;;
34828;SDS011;21042;47.620;12.188;2022-09-27T07:10:14;8.20;;;4.22;;
34828;SDS011;21042;47.620;12.188;2022-09-27T07:12:43;7.60;;;4.00;;
34828;SDS011;21042;47.620;12.188;2022-09-27T07:15:14;6.90;;;3.92;;
34828;SDS011;21042;47.620;12.188;2022-09-27T07:17:41;7.10;;;4.00;;
34828;SDS011;21042;47.620;12.188;2022-09-27T07:20:08;5.80;;;3.95;;
34828;SDS011;21042;47.620;12.188;2022-09-27T07:22:38;7.90;;;4.03;;
34828;SDS011;21042;47.620;12.188;2022-09-27T07:25:12;6.78;;;5.07;;
34828;SDS011;21042;47.620;12.188;2022-09-27T07:27:38;11.50;;;5.78;;
34828;SDS011;21042;47.620;12.188;2022-09-27T07:30:08;13.57;;;4.20;;
34828;SDS011;21042;47.620;12.188;2022-09-27T07:32:37;6.30;;;3.55;;
34828;SDS011;21042;47.620;12.188;2022-09-27T07:35:08;7.35;;;3.63;;
34828;SDS011;21042;47.620;12.188;2022-09-27T07:37:36;6.38;;;3.33;;
34828;SDS011;21042;47.620;12.188;2022-09-27T07:40:04;8.48;;;4.13;;
34828;SDS011;21042;47.620;12.188;2022-09-27T07:42:35;5.18;;;3.38;;
34828;SDS011;21042;47.620;12.188;2022-09-27T07:45:07;11.20;;;4.70;;
34828;SDS011;21042;47.620;12.188;2022-09-27T07:48:07;7.78;;;3.75;;
34828;SDS011;21042;47.620;12.188;2022-09-27T07:50:54;5.40;;;3.20;;
34828;SDS011;21042;47.620;12.188;2022-09-27T07:53:50;7.80;;;3.67;;
34828;SDS011;21042;47.620;12.188;2022-09-27T07:59:19;5.28;;;3.63;;
34828;SDS011;21042;47.620;12.188;2022-09-27T08:01:46;5.15;;;2.88;;
34828;SDS011;21042;47.620;12.188;2022-09-27T08:04:12;7.68;;;3.75;;
34828;SDS011;21042;47.620;12.188;2022-09-27T08:06:40;12.98;;;3.90;;
34828;SDS011;21042;47.620;12.188;2022-09-27T08:09:07;6.60;;;3.78;;
34828;SDS011;21042;47.620;12.188;2022-09-27T08:11:36;6.13;;;3.72;;
34828;SDS011;21042;47.620;12.188;2022-09-27T08:14:03;5.55;;;3.72;;
34828;SDS011;21042;47.620;12.188;2022-09-27T08:16:32;6.22;;;3.72;;
34828;SDS011;21042;47.620;12.188;2022-09-27T08:19:11;4.82;;;2.67;;
34828;SDS011;21042;47.620;12.188;2022-09-27T08:21:43;5.18;;;3.08;;
34828;SDS011;21042;47.620;12.188;2022-09-27T08:24:15;6.32;;;3.05;;
34828;SDS011;21042;47.620;12.188;2022-09-27T08:27:00;5.85;;;3.30;;
34828;SDS011;21042;47.620;12.188;2022-09-27T08:29:43;5.30;;;3.15;;
34828;SDS011;21042;47.620;12.188;2022-09-27T08:34:37;6.28;;;2.88;;
34828;SDS011;21042;47.620;12.188;2022-09-27T08:37:04;7.40;;;3.00;;
34828;SDS011;21042;47.620;12.188;2022-09-27T08:39:31;5.18;;;3.33;;
34828;SDS011;21042;47.620;12.188;2022-09-27T08:42:43;9.25;;;3.80;;
34828;SDS011;21042;47.620;12.188;2022-09-27T08:47:41;10.90;;;3.80;;
34828;SDS011;21042;47.620;12.188;2022-09-27T08:55:59;4.88;;;3.28;;
34828;SDS011;21042;47.620;12.188;2022-09-27T08:58:44;7.45;;;3.22;;
34828;SDS011;21042;47.620;12.188;2022-09-27T09:01:22;9.43;;;3.65;;
34828;SDS011;21042;47.620;12.188;2022-09-27T09:04:17;6.35;;;4.43;;
34828;SDS011;21042;47.620;12.188;2022-09-27T09:06:57;5.93;;;3.95;;
34828;SDS011;21042;47.620;12.188;2022-09-27T09:09:57;7.22;;;4.30;;
34828;SDS011;21042;47.620;12.188;2022-09-27T09:13:08;5.70;;;3.90;;
34828;SDS011;21042;47.620;12.188;2022-09-27T09:16:01;5.93;;;4.03;;
34828;SDS011;21042;47.620;12.188;2022-09-27T09:21:58;7.32;;;3.90;;
34828;SDS011;21042;47.620;12.188;2022-09-27T09:29:54;5.90;;;4.43;;
34828;SDS011;21042;47.620;12.188;2022-09-27T09:32:42;8.85;;;4.20;;
34828;SDS011;21042;47.620;12.188;2022-09-27T09:35:25;5.90;;;4.30;;
34828;SDS011;21042;47.620;12.188;2022-09-27T09:38:01;8.00;;;4.13;;
34828;SDS011;21042;47.620;12.188;2022-09-27T09:41:01;6.07;;;4.30;;
34828;SDS011;21042;47.620;12.188;2022-09-27T09:43:54;6.68;;;4.20;;
34828;SDS011;21042;47.620;12.188;2022-09-27T09:46:32;6.53;;;3.50;;
34828;SDS011;21042;47.620;12.188;2022-09-27T09:49:14;4.93;;;3.03;;
34828;SDS011;21042;47.620;12.188;2022-09-27T09:51:47;7.68;;;2.97;;
34828;SDS011;21042;47.620;12.188;2022-09-27T09:57:37;5.97;;;2.47;;
34828;SDS011;21042;47.620;12.188;2022-09-27T10:00:04;5.25;;;3.08;;
34828;SDS011;21042;47.620;12.188;2022-09-27T10:02:41;8.60;;;3.00;;
34828;SDS011;21042;47.620;12.188;2022-09-27T10:05:17;8.15;;;3.00;;
34828;SDS011;21042;47.620;12.188;2022-09-27T10:07:51;2.97;;;1.48;;
34828;SDS011;21042;47.620;12.188;2022-09-27T10:10:20;2.55;;;1.58;;
34828;SDS011;21042;47.620;12.188;2022-09-27T10:12:53;7.68;;;1.90;;
34828;SDS011;21042;47.620;12.188;2022-09-27T10:15:27;3.55;;;1.38;;
34828;SDS011;21042;47.620;12.188;2022-09-27T10:17:56;2.03;;;1.00;;
34828;SDS011;21042;47.620;12.188;2022-09-27T10:22:58;1.65;;;0.73;;
34828;SDS011;21042;47.620;12.188;2022-09-27T10:26:12;1.23;;;0.70;;
34828;SDS011;21042;47.620;12.188;2022-09-27T10:28:47;0.60;;;0.50;;
34828;SDS011;21042;47.620;12.188;2022-09-27T10:31:21;3.80;;;0.70;;
34828;SDS011;21042;47.620;12.188;2022-09-27T10:33:59;3.00;;;0.60;;
34828;SDS011;21042;47.620;12.188;2022-09-27T10:36:37;1.92;;;0.40;;
34828;SDS011;21042;47.620;12.188;2022-09-27T10:39:04;1.55;;;0.50;;
34828;SDS011;21042;47.620;12.188;2022-09-27T10:41:39;0.88;;;0.30;;
34828;SDS011;21042;47.620;12.188;2022-09-27T10:47:21;1.95;;;0.40;;
34828;SDS011;21042;47.620;12.188;2022-09-27T10:50:03;1.30;;;0.30;;
34828;SDS011;21042;47.620;12.188;2022-09-27T10:53:15;2.55;;;0.38;;
34828;SDS011;21042;47.620;12.188;2022-09-27T10:55:54;0.35;;;0.35;;
34828;SDS011;21042;47.620;12.188;2022-09-27T11:01:07;0.80;;;0.40;;
34828;SDS011;21042;47.620;12.188;2022-09-27T11:04:00;1.95;;;0.30;;
34828;SDS011;21042;47.620;12.188;2022-09-27T11:06:28;1.10;;;0.30;;
34828;SDS011;21042;47.620;12.188;2022-09-27T11:09:18;1.98;;;0.10;;
34828;SDS011;21042;47.620;12.188;2022-09-27T11:12:14;0.30;;;0.20;;
34828;SDS011;21042;47.620;12.188;2022-09-27T11:14:43;1.23;;;0.20;;
34828;SDS011;21042;47.620;12.188;2022-09-27T11:17:50;0.52;;;0.30;;
34828;SDS011;21042;47.620;12.188;2022-09-27T11:20:18;0.95;;;0.20;;
34828;SDS011;21042;47.620;12.188;2022-09-27T11:32:11;2.28;;;0.15;;
34828;SDS011;21042;47.620;12.188;2022-09-27T11:40:11;0.10;;;0.10;;
34828;SDS011;21042;47.620;12.188;2022-09-27T11:43:07;0.70;;;0.20;;
34828;SDS011;21042;47.620;12.188;2022-09-27T11:46:07;0.03;;;0.00;;
34828;SDS011;21042;47.620;12.188;2022-09-27T12:00:17;0.05;;;0.05;;
34828;SDS011;21042;47.620;12.188;2022-09-27T12:03:19;0.00;;;0.00;;
34828;SDS011;21042;47.620;12.188;2022-09-27T12:06:15;0.38;;;0.20;;
34828;SDS011;21042;47.620;12.188;2022-09-27T12:09:02;2.50;;;0.10;;
34828;SDS011;21042;47.620;12.188;2022-09-27T12:11:40;0.30;;;0.10;;
34828;SDS011;21042;47.620;12.188;2022-09-27T12:14:38;1.25;;;0.20;;
34828;SDS011;21042;47.620;12.188;2022-09-27T12:17:10;0.10;;;0.10;;
34828;SDS011;21042;47.620;12.188;2022-09-27T12:19:50;0.60;;;0.20;;
34828;SDS011;21042;47.620;12.188;2022-09-27T12:22:33;0.30;;;0.10;;
34828;SDS011;21042;47.620;12.188;2022-09-27T12:25:33;0.47;;;0.35;;
34828;SDS011;21042;47.620;12.188;2022-09-27T12:31:05;0.22;;;0.20;;
34828;SDS011;21042;47.620;12.188;2022-09-27T12:34:12;0.30;;;0.20;;
34828;SDS011;21042;47.620;12.188;2022-09-27T12:36:48;2.25;;;0.25;;
34828;SDS011;21042;47.620;12.188;2022-09-27T12:42:08;0.25;;;0.15;;
34828;SDS011;21042;47.620;12.188;2022-09-27T12:44:44;0.40;;;0.25;;
34828;SDS011;21042;47.620;12.188;2022-09-27T12:50:02;2.28;;;0.25;;
34828;SDS011;21042;47.620;12.188;2022-09-27T12:52:51;0.28;;;0.28;;
34828;SDS011;21042;47.620;12.188;2022-09-27T13:09:46;1.08;;;0.30;;
34828;SDS011;21042;47.620;12.188;2022-09-27T13:12:27;0.73;;;0.17;;
34828;SDS011;21042;47.620;12.188;2022-09-27T13:17:53;0.38;;;0.10;;
34828;SDS011;21042;47.620;12.188;2022-09-27T13:20:37;1.00;;;0.10;;
34828;SDS011;21042;47.620;12.188;2022-09-27T13:26:01;0.68;;;0.20;;
34828;SDS011;21042;47.620;12.188;2022-09-27T13:43:30;0.10;;;0.10;;
34828;SDS011;21042;47.620;12.188;2022-09-27T13:46:25;0.10;;;0.10;;
34828;SDS011;21042;47.620;12.188;2022-09-27T13:52:02;2.10;;;0.30;;
34828;SDS011;21042;47.620;12.188;2022-09-27T13:54:58;0.10;;;0.10;;
34828;SDS011;21042;47.620;12.188;2022-09-27T13:57:42;0.10;;;0.10;;
34828;SDS011;21042;47.620;12.188;2022-09-27T14:00:37;0.25;;;0.20;;
34828;SDS011;21042;47.620;12.188;2022-09-27T14:05:55;0.22;;;0.10;;
34828;SDS011;21042;47.620;12.188;2022-09-27T14:08:32;0.10;;;0.10;;
34828;SDS011;21042;47.620;12.188;2022-09-27T14:11:09;0.40;;;0.20;;
34828;SDS011;21042;47.620;12.188;2022-09-27T14:13:41;0.57;;;0.10;;
34828;SDS011;21042;47.620;12.188;2022-09-27T14:16:13;0.47;;;0.10;;
34828;SDS011;21042;47.620;12.188;2022-09-27T14:18:45;0.20;;;0.15;;
34828;SDS011;21042;47.620;12.188;2022-09-27T14:21:26;1.63;;;0.30;;
34828;SDS011;21042;47.620;12.188;2022-09-27T14:24:16;0.68;;;0.30;;
34828;SDS011;21042;47.620;12.188;2022-09-27T14:26:45;2.45;;;0.47;;
34828;SDS011;21042;47.620;12.188;2022-09-27T14:29:17;2.25;;;0.30;;
34828;SDS011;21042;47.620;12.188;2022-09-27T14:31:46;1.65;;;0.40;;
34828;SDS011;21042;47.620;12.188;2022-09-27T14:34:37;0.85;;;0.30;;
34828;SDS011;21042;47.620;12.188;2022-09-27T14:37:12;5.38;;;0.50;;
34828;SDS011;21042;47.620;12.188;2022-09-27T14:40:00;2.63;;;0.60;;
34828;SDS011;21042;47.620;12.188;2022-09-27T14:42:33;1.83;;;0.47;;
34828;SDS011;21042;47.620;12.188;2022-09-27T14:45:06;2.63;;;0.47;;
34828;SDS011;21042;47.620;12.188;2022-09-27T14:47:52;2.38;;;0.77;;
34828;SDS011;21042;47.620;12.188;2022-09-27T14:50:23;1.95;;;0.35;;
34828;SDS011;21042;47.620;12.188;2022-09-27T14:52:54;1.45;;;0.65;;
34828;SDS011;21042;47.620;12.188;2022-09-27T14:55:25;1.83;;;0.57;;
34828;SDS011;21042;47.620;12.188;2022-09-27T14:57:58;3.65;;;0.77;;
34828;SDS011;21042;47.620;12.188;2022-09-27T15:00:26;1.27;;;0.75;;
34828;SDS011;21042;47.620;12.188;2022-09-27T15:02:59;1.02;;;0.50;;
34828;SDS011;21042;47.620;12.188;2022-09-27T15:05:34;3.80;;;0.60;;
34828;SDS011;21042;47.620;12.188;2022-09-27T15:08:02;0.57;;;0.38;;
34828;SDS011;21042;47.620;12.188;2022-09-27T15:10:33;1.85;;;0.55;;
34828;SDS011;21042;47.620;12.188;2022-09-27T15:13:01;2.85;;;0.70;;
34828;SDS011;21042;47.620;12.188;2022-09-27T15:15:33;3.00;;;0.68;;
34828;SDS011;21042;47.620;12.188;2022-09-27T15:18:22;2.85;;;0.88;;
34828;SDS011;21042;47.620;12.188;2022-09-27T15:20:59;0.80;;;0.50;;
34828;SDS011;21042;47.620;12.188;2022-09-27T15:23:33;0.95;;;0.50;;
34828;SDS011;21042;47.620;12.188;2022-09-27T15:26:18;1.80;;;0.60;;
34828;SDS011;21042;47.620;12.188;2022-09-27T15:28:50;5.75;;;0.63;;
34828;SDS011;21042;47.620;12.188;2022-09-27T15:31:31;3.53;;;1.00;;
34828;SDS011;21042;47.620;12.188;2022-09-27T15:34:00;2.90;;;0.50;;
34828;SDS011;21042;47.620;12.188;2022-09-27T15:39:18;3.47;;;0.75;;
34828;SDS011;21042;47.620;12.188;2022-09-27T15:44:35;2.33;;;1.15;;
34828;SDS011;21042;47.620;12.188;2022-09-27T15:47:03;2.90;;;1.02;;
34828;SDS011;21042;47.620;12.188;2022-09-27T15:49:30;2.97;;;1.05;;
34828;SDS011;21042;47.620;12.188;2022-09-27T15:52:01;13.70;;;5.32;;
34828;SDS011;21042;47.620;12.188;2022-09-27T15:54:30;14.55;;;6.38;;
34828;SDS011;21042;47.620;12.188;2022-09-27T15:57:02;12.45;;;5.43;;
34828;SDS011;21042;47.620;12.188;2022-09-27T15:59:31;12.10;;;5.57;;
34828;SDS011;21042;47.620;12.188;2022-09-27T16:02:01;26.95;;;10.18;;
34828;SDS011;21042;47.620;12.188;2022-09-27T16:04:33;6.07;;;3.10;;
34828;SDS011;21042;47.620;12.188;2022-09-27T16:07:00;6.85;;;2.60;;
34828;SDS011;21042;47.620;12.188;2022-09-27T16:09:29;4.75;;;2.17;;
34828;SDS011;21042;47.620;12.188;2022-09-27T16:11:56;5.75;;;2.03;;
34828;SDS011;21042;47.620;12.188;2022-09-27T16:14:23;3.55;;;1.67;;
34828;SDS011;21042;47.620;12.188;2022-09-27T16:16:50;4.43;;;1.20;;
34828;SDS011;21042;47.620;12.188;2022-09-27T16:19:19;3.15;;;1.08;;
34828;SDS011;21042;47.620;12.188;2022-09-27T16:21:46;5.45;;;2.17;;
34828;SDS011;21042;47.620;12.188;2022-09-27T16:24:13;7.43;;;3.97;;
34828;SDS011;21042;47.620;12.188;2022-09-27T16:29:08;4.82;;;2.00;;
34828;SDS011;21042;47.620;12.188;2022-09-27T16:31:38;2.90;;;2.00;;
34828;SDS011;21042;47.620;12.188;2022-09-27T16:34:05;4.88;;;2.58;;
34828;SDS011;21042;47.620;12.188;2022-09-27T16:36:34;3.38;;;1.67;;
34828;SDS011;21042;47.620;12.188;2022-09-27T16:39:01;9.32;;;4.10;;
34828;SDS011;21042;47.620;12.188;2022-09-27T16:41:30;10.68;;;5.30;;
34828;SDS011;21042;47.620;12.188;2022-09-27T16:43:58;6.53;;;2.65;;
34828;SDS011;21042;47.620;12.188;2022-09-27T16:46:30;4.82;;;2.53;;
34828;SDS011;21042;47.620;12.188;2022-09-27T16:48:59;7.63;;;2.92;;
34828;SDS011;21042;47.620;12.188;2022-09-27T16:51:26;5.82;;;3.47;;
34828;SDS011;21042;47.620;12.188;2022-09-27T16:54:12;3.97;;;2.60;;
34828;SDS011;21042;47.620;12.188;2022-09-27T16:56:41;4.75;;;2.42;;
34828;SDS011;21042;47.620;12.188;2022-09-27T16:59:07;10.30;;;3.70;;
34828;SDS011;21042;47.620;12.188;2022-09-27T17:01:34;11.00;;;4.10;;
34828;SDS011;21042;47.620;12.188;2022-09-27T17:04:01;18.42;;;7.95;;
34828;SDS011;21042;47.620;12.188;2022-09-27T17:06:28;11.07;;;6.15;;
34828;SDS011;21042;47.620;12.188;2022-09-27T17:08:57;9.48;;;4.90;;
34828;SDS011;21042;47.620;12.188;2022-09-27T17:11:29;10.07;;;4.78;;
34828;SDS011;21042;47.620;12.188;2022-09-27T17:13:56;13.85;;;5.50;;
34828;SDS011;21042;47.620;12.188;2022-09-27T17:16:23;8.93;;;4.43;;
34828;SDS011;21042;47.620;12.188;2022-09-27T17:21:17;9.23;;;3.85;;
34828;SDS011;21042;47.620;12.188;2022-09-27T17:23:43;6.20;;;3.60;;
34828;SDS011;21042;47.620;12.188;2022-09-27T17:26:14;6.75;;;2.88;;
34828;SDS011;21042;47.620;12.188;2022-09-27T17:28:46;6.50;;;2.47;;
34828;SDS011;21042;47.620;12.188;2022-09-27T17:31:15;3.97;;;1.85;;
34828;SDS011;21042;47.620;12.188;2022-09-27T17:33:44;10.75;;;4.20;;
34828;SDS011;21042;47.620;12.188;2022-09-27T17:36:14;7.88;;;3.38;;
34828;SDS011;21042;47.620;12.188;2022-09-27T17:38:43;4.57;;;1.67;;
34828;SDS011;21042;47.620;12.188;2022-09-27T17:41:15;3.22;;;1.50;;
34828;SDS011;21042;47.620;12.188;2022-09-27T17:43:44;2.15;;;1.17;;
34828;SDS011;21042;47.620;12.188;2022-09-27T17:46:16;7.65;;;1.67;;
34828;SDS011;21042;47.620;12.188;2022-09-27T17:48:44;6.85;;;3.28;;
34828;SDS011;21042;47.620;12.188;2022-09-27T17:51:31;8.25;;;3.70;;
34828;SDS011;21042;47.620;12.188;2022-09-27T17:53:59;7.43;;;3.25;;
34828;SDS011;21042;47.620;12.188;2022-09-27T17:56:26;5.03;;;2.30;;
34828;SDS011;21042;47.620;12.188;2022-09-27T17:58:54;1.92;;;0.82;;
34828;SDS011;21042;47.620;12.188;2022-09-27T18:01:22;4.03;;;1.30;;
34828;SDS011;21042;47.620;12.188;2022-09-27T18:03:53;2.80;;;1.60;;
34828;SDS011;21042;47.620;12.188;2022-09-27T18:06:21;15.38;;;2.20;;
34828;SDS011;21042;47.620;12.188;2022-09-27T18:08:49;5.10;;;2.10;;
34828;SDS011;21042;47.620;12.188;2022-09-27T18:11:16;7.45;;;2.50;;